Time;durP1;ratioP1;P1;durP2;ratioP2;P2;SDS_P1;SDS_P2;PMS_P1;PMS_P2;Temp;Humidity;BMP_temperature;BMP_pressure;BME280_temperature;BME280_humidity;BME280_pressure;Samples;Min_cycle;Max_cycle;Signal;HPM_P1;HPM_P2
2021/07/29 00:01:40;;;;;;;1.70;0.60;;;22.70;99.90;;;;;;20803560;22;20656;-67
2021/07/29 00:11:44;;;;;;;0.90;0.50;;;22.80;99.90;;;;;;20791596;28;20786;-67
2021/07/29 00:21:49;;;;;;;0.93;0.70;;;22.80;99.90;;;;;;20791168;28;20560;-67
2021/07/29 00:31:53;;;;;;;2.03;1.27;;;22.80;99.90;;;;;;20791944;28;20210;-67
2021/07/29 00:41:58;;;;;;;0.70;0.70;;;22.80;99.90;;;;;;20791920;28;20209;-66
2021/07/29 00:52:01;;;;;;;1.47;0.60;;;22.70;99.90;;;;;;20791797;28;20224;-66
2021/07/29 01:02:07;;;;;;;2.53;0.70;;;22.60;99.90;;;;;;20790691;28;20250;-67
2021/07/29 01:12:11;;;;;;;0.73;0.67;;;22.70;99.90;;;;;;20789148;28;20222;-67
2021/07/29 01:22:16;;;;;;;0.40;0.40;;;22.80;99.90;;;;;;20786789;28;20198;-66
2021/07/29 01:32:19;;;;;;;3.97;1.77;;;22.60;99.90;;;;;;20787778;28;21024;-66
2021/07/29 01:42:24;;;;;;;1.70;1.00;;;22.80;99.90;;;;;;20768058;28;20551;-67
2021/07/29 01:52:28;;;;;;;1.30;0.90;;;22.70;99.90;;;;;;20787276;28;20218;-65
2021/07/29 02:02:33;;;;;;;1.93;1.53;;;22.60;99.90;;;;;;20784516;28;20663;-67
2021/07/29 02:12:36;;;;;;;1.43;0.67;;;22.50;99.90;;;;;;20784316;28;20710;-67
2021/07/29 02:22:42;;;;;;;0.90;0.70;;;22.50;99.90;;;;;;20781843;28;20198;-66
2021/07/29 02:32:47;;;;;;;1.23;0.50;;;22.50;99.90;;;;;;20782350;28;20256;-67
2021/07/29 02:42:52;;;;;;;1.13;0.90;;;22.40;99.90;;;;;;20781894;28;20653;-66
2021/07/29 02:52:56;;;;;;;1.47;1.03;;;22.40;99.90;;;;;;20780711;28;20218;-67
2021/07/29 03:03:01;;;;;;;10.10;1.70;;;22.30;99.90;;;;;;20781442;28;20241;-66
2021/07/29 03:13:05;;;;;;;1.43;1.00;;;22.30;99.90;;;;;;20778816;28;20233;-67
2021/07/29 03:23:10;;;;;;;0.87;0.67;;;22.30;99.90;;;;;;20772845;28;20305;-66
2021/07/29 03:33:14;;;;;;;3.27;1.43;;;22.40;99.90;;;;;;20776684;28;20245;-66
2021/07/29 03:43:19;;;;;;;1.70;1.20;;;22.40;99.90;;;;;;20777976;28;20209;-67
2021/07/29 03:53:22;;;;;;;0.97;0.97;;;22.40;99.90;;;;;;20773046;28;20252;-67
2021/07/29 04:03:27;;;;;;;2.73;1.83;;;22.40;99.90;;;;;;20779830;28;21030;-65
2021/07/29 04:13:31;;;;;;;1.30;1.20;;;22.30;99.90;;;;;;20776335;28;20241;-64
2021/07/29 04:23:36;;;;;;;1.00;0.60;;;22.30;99.90;;;;;;20777968;28;20210;-66
2021/07/29 04:33:40;;;;;;;1.60;0.97;;;22.20;99.90;;;;;;20774941;28;20610;-66
2021/07/29 04:43:45;;;;;;;16.80;1.70;;;22.30;99.90;;;;;;20775466;28;20567;-66
2021/07/29 04:53:48;;;;;;;1.50;1.03;;;22.20;99.90;;;;;;20784762;28;20217;-66
2021/07/29 05:03:54;;;;;;;1.10;0.63;;;22.20;99.90;;;;;;20790227;28;20242;-66
2021/07/29 05:13:58;;;;;;;2.00;1.33;;;22.20;99.90;;;;;;20786205;28;20222;-66
2021/07/29 05:24:06;;;;;;;1.53;1.23;;;22.40;99.90;;;;;;20781978;28;20214;-66
2021/07/29 05:34:10;;;;;;;2.23;2.10;;;22.50;99.90;;;;;;20778034;28;20283;-66
2021/07/29 05:44:15;;;;;;;4.23;1.00;;;22.70;99.90;;;;;;20782252;28;20209;-67
2021/07/29 05:54:19;;;;;;;1.17;1.07;;;23.10;99.90;;;;;;20784817;28;20221;-67
2021/07/29 06:04:25;;;;;;;1.37;1.10;;;23.50;99.90;;;;;;20775862;28;20320;-66
2021/07/29 06:14:28;;;;;;;8.90;1.73;;;23.90;99.90;;;;;;20781201;28;20407;-67
2021/07/29 06:24:33;;;;;;;2.15;1.17;;;24.30;99.90;;;;;;20779583;28;20632;-67
2021/07/29 06:34:38;;;;;;;1.55;1.45;;;24.80;99.90;;;;;;20762651;28;20225;-67
2021/07/29 06:44:44;;;;;;;0.65;0.57;;;25.00;99.90;;;;;;20774930;28;20194;-66
2021/07/29 06:54:48;;;;;;;4.03;0.82;;;25.30;99.90;;;;;;20777632;28;20217;-66
2021/07/29 07:04:54;;;;;;;0.65;0.65;;;25.60;99.90;;;;;;20774240;28;20218;-66
2021/07/29 07:14:57;;;;;;;4.30;1.83;;;25.80;99.90;;;;;;20773548;28;20222;-65
2021/07/29 07:25:03;;;;;;;0.88;0.80;;;26.00;99.90;;;;;;20772576;28;20198;-66
2021/07/29 07:35:07;;;;;;;2.15;1.13;;;25.80;99.90;;;;;;20771027;28;20229;-67
2021/07/29 07:45:13;;;;;;;2.50;1.20;;;26.00;99.90;;;;;;20772817;28;20919;-67
2021/07/29 07:55:16;;;;;;;1.73;1.30;;;26.10;99.90;;;;;;20753135;28;20232;-67
2021/07/29 08:05:21;;;;;;;3.88;1.02;;;26.10;99.90;;;;;;20773697;28;20719;-67
2021/07/29 08:15:25;;;;;;;0.82;0.82;;;26.10;99.90;;;;;;20750728;28;20237;-66
2021/07/29 08:25:30;;;;;;;0.98;0.82;;;26.30;99.90;;;;;;20734119;28;20206;-67
2021/07/29 08:35:36;;;;;;;1.90;1.35;;;26.40;99.90;;;;;;20766230;28;20233;-67
2021/07/29 08:45:44;;;;;;;1.55;1.45;;;26.50;99.90;;;;;;20784750;28;20187;-65
2021/07/29 08:55:51;;;;;;;0.57;0.57;;;26.60;99.90;;;;;;20750413;28;20233;-64
2021/07/29 09:06:02;;;;;;;0.60;0.60;;;26.70;99.90;;;;;;20745890;28;20625;-63
2021/07/29 09:16:12;;;;;;;0.73;0.70;;;26.80;99.90;;;;;;20704625;28;20230;-67
2021/07/29 09:26:17;;;;;;;1.27;1.17;;;27.10;99.90;;;;;;20702379;28;20553;-67
2021/07/29 09:36:20;;;;;;;1.13;0.77;;;27.30;99.90;;;;;;20700305;28;20227;-67
2021/07/29 09:46:25;;;;;;;1.42;1.08;;;27.30;99.90;;;;;;20743050;28;20286;-64
2021/07/29 09:56:29;;;;;;;0.68;0.68;;;27.40;99.90;;;;;;20699474;28;20249;-66
2021/07/29 10:06:54;;;;;;;1.00;0.75;;;27.50;99.90;;;;;;20772604;28;20583;-66
2021/07/29 10:16:59;;;;;;;3.65;1.35;;;27.70;99.90;;;;;;20781356;28;20218;-64
2021/07/29 10:27:11;;;;;;;2.13;1.42;;;28.10;99.90;;;;;;20790635;28;20201;-65
2021/07/29 10:37:15;;;;;;;2.22;1.83;;;28.30;99.90;;;;;;20729603;28;20245;-64
2021/07/29 10:47:45;;;;;;;1.70;1.35;;;28.60;99.90;;;;;;20829584;28;20384;-65
2021/07/29 10:57:59;;;;;;;2.30;1.30;;;28.90;99.90;;;;;;20844464;28;20248;-64
2021/07/29 11:08:05;;;;;;;5.38;2.65;;;29.50;99.90;;;;;;20859681;28;20225;-64
2021/07/29 11:18:17;;;;;;;2.03;1.63;;;29.40;99.90;;;;;;20857288;28;20230;-67
2021/07/29 11:28:22;;;;;;;1.85;1.58;;;29.50;99.90;;;;;;20773868;28;20640;-68
2021/07/29 11:38:40;;;;;;;1.77;1.38;;;30.70;99.90;;;;;;20768923;28;20222;-67
2021/07/29 11:48:45;;;;;;;1.35;0.98;;;31.00;99.90;;;;;;20772496;28;20292;-68
2021/07/29 11:58:58;;;;;;;5.90;1.35;;;30.90;99.90;;;;;;20753518;28;20217;-66
2021/07/29 12:09:03;;;;;;;1.70;1.30;;;31.30;99.90;;;;;;20784559;28;20226;-67
2021/07/29 12:19:06;;;;;;;1.55;1.02;;;32.00;99.90;;;;;;20785679;28;20240;-66
2021/07/29 12:29:12;;;;;;;1.55;1.02;;;32.80;99.90;;;;;;20787068;28;20528;-66
2021/07/29 12:39:17;;;;;;;4.65;2.08;;;33.30;99.90;;;;;;20787832;28;20622;-66
2021/07/29 12:49:22;;;;;;;6.20;1.92;;;33.60;99.90;;;;;;20785435;28;20194;-65
2021/07/29 12:59:26;;;;;;;2.15;1.35;;;34.20;99.90;;;;;;20786839;28;20232;-67
2021/07/29 13:09:31;;;;;;;1.33;1.15;;;34.60;99.90;;;;;;20783484;28;20194;-67
2021/07/29 13:19:35;;;;;;;1.50;0.88;;;34.20;99.90;;;;;;20767321;28;20241;-66
2021/07/29 13:29:40;;;;;;;1.77;0.98;;;34.10;99.90;;;;;;20780379;28;20206;-66
2021/07/29 13:39:44;;;;;;;0.85;0.73;;;34.40;99.90;;;;;;20782737;28;20340;-66
2021/07/29 13:49:49;;;;;;;1.13;1.02;;;34.60;99.90;;;;;;20761224;28;20217;-67
2021/07/29 13:59:54;;;;;;;1.65;0.98;;;34.70;99.90;;;;;;20779741;28;20226;-66
2021/07/29 14:10:07;;;;;;;2.40;2.05;;;34.60;99.90;;;;;;20762234;28;20194;-66
2021/07/29 14:20:19;;;;;;;1.27;1.10;;;35.00;99.90;;;;;;20775729;28;20709;-65
2021/07/29 14:30:25;;;;;;;2.88;1.30;;;35.20;99.90;;;;;;20761188;28;20206;-66
2021/07/29 14:40:29;;;;;;;1.90;1.30;;;35.60;99.90;;;;;;20776342;28;20229;-67
2021/07/29 14:50:35;;;;;;;3.13;1.88;;;36.00;99.90;;;;;;20774266;28;20217;-65
2021/07/29 16:13:16;;;;;;;1.70;1.23;;;35.10;99.90;;;;;;20752781;28;20614;-71
2021/07/29 16:23:20;;;;;;;1.20;1.10;;;34.20;99.90;;;;;;20770217;28;20233;-66
2021/07/29 16:33:26;;;;;;;1.55;1.45;;;32.50;99.90;;;;;;20769049;28;20206;-72
2021/07/29 16:43:30;;;;;;;1.38;0.88;;;31.20;99.90;;;;;;20770318;28;20232;-67
2021/07/29 16:53:35;;;;;;;2.25;1.02;;;30.70;99.90;;;;;;20784059;28;20224;-66
2021/07/29 17:03:39;;;;;;;1.50;1.15;;;30.50;99.90;;;;;;20784432;28;20248;-67
2021/07/29 17:13:44;;;;;;;1.17;1.08;;;30.40;99.90;;;;;;20784785;28;20471;-67
2021/07/29 17:23:49;;;;;;;2.55;1.58;;;32.40;99.90;;;;;;20781500;28;20218;-68
2021/07/29 17:33:53;;;;;;;3.47;1.92;;;32.90;99.90;;;;;;20783038;28;20213;-67
2021/07/29 17:43:57;;;;;;;6.45;3.05;;;33.00;99.90;;;;;;20780722;28;20229;-67
2021/07/29 17:54:02;;;;;;;1.58;1.38;;;32.60;99.90;;;;;;20782976;28;20198;-67
2021/07/29 18:04:06;;;;;;;2.95;1.65;;;31.20;99.90;;;;;;20780071;28;20238;-68
2021/07/29 18:14:11;;;;;;;3.40;1.65;;;30.70;99.90;;;;;;20778134;28;20572;-69
2021/07/29 18:24:15;;;;;;;2.72;1.73;;;28.60;99.90;;;;;;20775381;28;20229;-68
2021/07/29 18:34:19;;;;;;;3.22;1.77;;;28.30;99.90;;;;;;20780762;28;20553;-68
2021/07/29 18:44:23;;;;;;;4.75;1.55;;;28.60;99.90;;;;;;20776859;28;20229;-67
2021/07/29 18:54:30;;;;;;;2.05;0.82;;;27.80;99.90;;;;;;20779000;28;20581;-66
2021/07/29 19:04:34;;;;;;;3.47;1.75;;;26.90;99.90;;;;;;20776040;28;20233;-68
2021/07/29 19:14:42;;;;;;;1.25;1.15;;;26.50;99.90;;;;;;20757694;28;20205;-66
2021/07/29 19:24:46;;;;;;;2.38;1.70;;;26.30;99.90;;;;;;20775013;28;20668;-67
2021/07/29 19:34:51;;;;;;;5.75;1.13;;;26.30;99.90;;;;;;20772384;28;20281;-66
2021/07/29 19:44:55;;;;;;;1.48;1.38;;;26.20;99.90;;;;;;20774350;28;20388;-67
2021/07/29 19:54:59;;;;;;;3.15;2.45;;;26.00;99.90;;;;;;20772998;28;20198;-68
2021/07/29 20:05:03;;;;;;;1.55;1.40;;;25.90;99.90;;;;;;20775904;28;20233;-66
2021/07/29 20:15:10;;;;;;;1.42;1.10;;;25.80;99.90;;;;;;20772571;28;20198;-67
2021/07/29 20:25:13;;;;;;;1.55;1.10;;;25.80;99.90;;;;;;20787079;28;20516;-67
2021/07/29 20:35:19;;;;;;;0.80;0.80;;;25.80;99.90;;;;;;20783830;28;20205;-67
2021/07/29 20:45:22;;;;;;;6.63;1.40;;;25.60;99.90;;;;;;20789128;28;20198;-67
2021/07/29 20:55:28;;;;;;;7.22;2.17;;;25.30;99.90;;;;;;20785791;28;20191;-66
2021/07/29 21:05:32;;;;;;;4.28;1.45;;;25.00;99.90;;;;;;20784982;28;20221;-66
2021/07/29 21:15:37;;;;;;;1.58;1.30;;;25.10;99.90;;;;;;20784433;28;20562;-66
2021/07/29 21:25:40;;;;;;;20.55;1.23;;;24.80;99.90;;;;;;20784433;28;20194;-66
2021/07/29 21:35:46;;;;;;;2.13;1.45;;;24.60;99.90;;;;;;20783207;28;20194;-67
2021/07/29 21:45:49;;;;;;;1.27;1.17;;;24.70;99.90;;;;;;20783586;28;20304;-67
2021/07/29 21:55:55;;;;;;;1.30;0.93;;;24.30;99.90;;;;;;20783227;28;20202;-67
2021/07/29 22:05:59;;;;;;;1.40;0.83;;;24.00;99.90;;;;;;20782345;28;20222;-65
2021/07/29 22:16:04;;;;;;;2.33;2.13;;;23.90;99.90;;;;;;20782979;28;20582;-67
2021/07/29 22:26:08;;;;;;;0.80;0.80;;;23.90;99.90;;;;;;20779556;28;20198;-67
2021/07/29 22:36:13;;;;;;;3.47;1.25;;;23.80;99.90;;;;;;20780082;28;20485;-67
2021/07/29 22:46:16;;;;;;;1.90;1.58;;;23.70;99.90;;;;;;20777721;28;20190;-67
2021/07/29 22:56:22;;;;;;;2.23;1.80;;;23.80;99.90;;;;;;20779238;28;20387;-67
2021/07/29 23:16:37;;;;;;;1.90;1.42;;;23.50;99.90;;;;;;20868226;23;20648;-67
2021/07/29 23:37:03;;;;;;;1.27;0.97;;;23.20;99.90;;;;;;20860068;28;21113;-69
2021/07/29 23:47:06;;;;;;;2.23;1.07;;;23.10;99.90;;;;;;20858321;28;20541;-68
2021/07/29 23:57:11;;;;;;;9.13;1.23;;;23.10;99.90;;;;;;20859746;28;20229;-68
